Terminal Aerodrome Forecast
Issued by NWS Greer, SC

Home | Current Version | Previous Version | Text Only | Print | Product List | Glossary On
Versions: 1 2 3 4 5 6 7 8 9 10 11 12 13 14 15 16 17 18 19 20 21 22 23 24 25 26 27 28 29 30 31 32 33 34
000
FTUS42 KGSP 291100 AAA
TAFAVL
TAF AMD
KAVL 291159Z 2912/3012 00000KT 6SM BR SCT002
      TEMPO 2912/2913 3SM BR BKN002
     FM291300 00000KT P6SM SKC
     FM291800 16006KT P6SM FEW045
     FM300200 00000KT P6SM FEW045
     FM300900 00000KT 4SM BR FEW017=

USA.gov is the U.S. government's official web portal to all federal, state and local government web resources and services.